Forside
METAR-TAF:

METAR-TAF

Lufthavne :

Kingston, Jamaica

Breddekreds: 17-56N, længdekreds: 076-47W, højde: 3 m

Aktuelle vejr

Denne rapport blev lavet for 55 minutter siden, kl. 03:00 UTC
Vind 10 kt fra sydøst
Temperatur 29°C
Fugtighed 79%
Tryk 1014 hPa
Sigt 10 km eller mere
Nogle få skyer i en højde af 1800 ft

METAR: MKJP 230300Z 13010KT 9999 FEW018 29/25 Q1014

Tid: 22:55 (03:55 UTC)

Vejrudsigter

Denne rapport blev lavet for 4 timer og 40 minutter siden, kl. 23:15 UTC
Foreløbig gælder fra 23 på 00 UTC til 23 på 24 UTC
Vind 5 kt fra nord
Sigt 10 km eller mere
Nogle få skyer i en højde af 2200 ft
ændring
fra 23 på 14 UTC til 23 på 16 UTC
Vind 18 kt fra sydøst
Spredte skyer i en højde af 2000 ft
Nogle få skyer i en højde af 2200 ft, Cumulonimbus.

TAF: MKJP 222315Z 2300/2324 35005KT 9999 FEW022 BECMG 2314/2316 14018KT SCT020 FEW022CB

Vejrobservationer og prognoser fra mere end 4000 lufthavne (METAR og TAF).

De gule og røde prikker repræsenterer de meteorologiske stationer.

Flyt musen over at se navnet på stationen.

Så klik over at se vejr observationer og prognoser.

At skifte det kort: Klik på de grønne knapper med et sort kors for at zoome ind; på den grønne knap med en bindestreg for at zoome ud; eller på de grønne pile for tilstødende kort.


METAR-TAF: